Time;durP1;ratioP1;P1;durP2;ratioP2;P2;SDS_P1;SDS_P2;PMS_P1;PMS_P2;Temp;Humidity;BMP_temperature;BMP_pressure;BME280_temperature;BME280_humidity;BME280_pressure;Samples;Min_cycle;Max_cycle;Signal;HPM_P1;HPM_P2
2021/07/19 00:02:31;;;;;;;5.60;4.65;;;;;;;19.25;69.53;98765.55;2130508;83;20967;-80
2021/07/19 00:05:32;;;;;;;9.60;5.30;;;;;;;19.19;69.96;98759.08;2167388;82;21392;-83
2021/07/19 00:08:32;;;;;;;9.40;4.53;;;;;;;19.15;70.20;98762.25;2141774;83;21340;-81
2021/07/19 00:11:33;;;;;;;11.48;4.70;;;;;;;19.12;70.60;98761.01;2167467;82;20977;-81
2021/07/19 00:14:33;;;;;;;9.50;4.75;;;;;;;19.07;71.02;98763.77;2141827;83;21079;-82
2021/07/19 00:17:34;;;;;;;6.83;4.47;;;;;;;19.03;70.85;98759.41;2167480;82;20984;-80
2021/07/19 00:20:34;;;;;;;9.08;4.47;;;;;;;19.02;71.11;98766.06;2141763;83;21348;-81
2021/07/19 00:23:35;;;;;;;13.22;5.20;;;;;;;18.96;71.40;98768.86;2168071;82;21000;-79
2021/07/19 00:26:35;;;;;;;10.30;4.50;;;;;;;18.92;71.12;98773.34;2142185;83;21006;-80
2021/07/19 00:29:36;;;;;;;12.68;4.75;;;;;;;18.90;71.59;98778.25;2154110;82;21060;-80
2021/07/19 00:32:36;;;;;;;10.00;4.45;;;;;;;18.83;72.14;98781.48;2226788;79;20948;-81
2021/07/19 00:35:37;;;;;;;7.62;4.65;;;;;;;18.81;71.77;98787.72;2226512;79;20971;-83
2021/07/19 00:38:37;;;;;;;11.48;4.78;;;;;;;18.77;72.06;98785.14;2226939;79;20944;-83
2021/07/19 00:41:41;;;;;;;8.55;4.62;;;;;;;18.74;71.92;98787.84;2226963;79;20932;-81
2021/07/19 00:44:41;;;;;;;6.62;4.45;;;;;;;18.71;71.99;98791.88;2227136;79;21041;-80
2021/07/19 00:47:42;;;;;;;7.85;4.40;;;;;;;18.68;72.06;98788.44;2227185;79;20941;-81
2021/07/19 00:50:42;;;;;;;10.43;4.58;;;;;;;18.63;72.31;98790.30;2226890;79;20996;-81
2021/07/19 00:53:43;;;;;;;7.30;4.47;;;;;;;18.56;72.07;98782.92;2226857;79;20944;-83
2021/07/19 00:56:43;;;;;;;8.50;4.45;;;;;;;18.51;71.97;98794.50;2226947;79;20991;-83
2021/07/19 00:59:44;;;;;;;7.85;4.65;;;;;;;18.45;72.20;98795.05;2226826;79;21007;-82
2021/07/19 01:02:44;;;;;;;8.73;4.40;;;;;;;18.42;72.35;98793.78;2226767;79;20964;-82
2021/07/19 01:05:45;;;;;;;11.68;5.22;;;;;;;18.38;72.92;98792.55;2226755;79;21352;-81
2021/07/19 01:08:45;;;;;;;6.87;4.60;;;;;;;18.33;72.58;98794.42;2226847;79;21362;-81
2021/07/19 01:11:46;;;;;;;8.95;5.15;;;;;;;18.29;72.70;98799.34;2226820;79;20955;-81
2021/07/19 01:14:46;;;;;;;14.53;5.30;;;;;;;18.24;72.90;98797.25;2227055;79;20964;-81
2021/07/19 01:17:47;;;;;;;8.13;4.97;;;;;;;18.22;72.96;98794.64;2226304;79;20940;-83
2021/07/19 01:20:47;;;;;;;8.35;5.25;;;;;;;18.19;72.92;98797.30;2226689;79;21272;-82
2021/07/19 01:23:48;;;;;;;7.50;4.67;;;;;;;18.17;73.12;98800.42;2226518;79;20925;-81
2021/07/19 01:26:48;;;;;;;9.15;4.83;;;;;;;18.14;72.72;98800.48;2226925;79;21311;-80
2021/07/19 01:29:49;;;;;;;10.45;4.85;;;;;;;18.07;72.87;98805.47;2259682;78;21372;-80
2021/07/19 01:32:49;;;;;;;10.05;4.47;;;;;;;18.05;72.85;98805.95;2262394;79;20948;-80
2021/07/19 01:35:50;;;;;;;9.23;5.33;;;;;;;17.99;72.77;98808.25;2262460;79;20941;-80
2021/07/19 01:38:50;;;;;;;8.68;4.85;;;;;;;17.93;72.79;98814.09;2262519;79;20904;-80
2021/07/19 01:41:51;;;;;;;10.58;5.17;;;;;;;17.87;73.03;98815.08;2262295;79;21007;-79
2021/07/19 01:44:51;;;;;;;12.75;5.20;;;;;;;17.82;73.18;98820.44;2262556;79;21347;-82
2021/07/19 01:47:52;;;;;;;12.03;5.65;;;;;;;17.82;73.94;98819.13;2262747;79;20979;-82
2021/07/19 01:50:52;;;;;;;8.00;4.90;;;;;;;17.80;73.94;98817.41;2262500;79;20952;-81
2021/07/19 01:53:53;;;;;;;11.95;5.70;;;;;;;17.77;74.15;98818.33;2262365;79;20948;-81
2021/07/19 01:56:54;;;;;;;9.15;5.12;;;;;;;17.79;74.25;98826.22;2262499;79;20928;-80
2021/07/19 01:59:54;;;;;;;40.35;9.08;;;;;;;17.78;74.25;98831.95;2262173;79;21011;-79
2021/07/19 02:02:55;;;;;;;15.93;5.55;;;;;;;17.77;74.06;98835.94;2262294;79;21347;-82
2021/07/19 02:05:55;;;;;;;7.40;5.45;;;;;;;17.72;73.94;98832.06;2262452;79;20956;-81
2021/07/19 02:08:56;;;;;;;8.68;5.55;;;;;;;17.70;74.04;98830.34;2262418;79;21031;-80
2021/07/19 02:11:56;;;;;;;9.83;5.87;;;;;;;17.70;74.46;98835.17;2211157;81;21372;-81
2021/07/19 02:14:57;;;;;;;20.95;6.22;;;;;;;17.69;74.64;98833.42;2183920;82;21352;-82
2021/07/19 02:17:57;;;;;;;14.68;5.37;;;;;;;17.68;74.45;98832.13;2183800;81;20976;-80
2021/07/19 02:20:58;;;;;;;16.50;5.95;;;;;;;17.68;74.43;98826.86;2183806;81;21011;-82
2021/07/19 02:23:58;;;;;;;12.98;6.30;;;;;;;17.61;74.29;98828.70;2183897;81;21017;-81
2021/07/19 02:26:59;;;;;;;11.30;6.20;;;;;;;17.59;74.80;98835.77;2183954;81;21526;-81
2021/07/19 02:29:59;;;;;;;8.80;6.17;;;;;;;17.57;75.04;98832.28;2177242;81;21039;-80
2021/07/19 02:33:00;;;;;;;7.80;6.42;;;;;;;17.56;75.34;98832.31;2176844;82;20973;-81
2021/07/19 02:36:01;;;;;;;16.30;6.42;;;;;;;17.54;75.26;98828.82;2177022;82;20976;-82
2021/07/19 02:39:01;;;;;;;14.13;6.33;;;;;;;17.54;75.80;98838.93;2177203;82;21289;-83
2021/07/19 02:42:02;;;;;;;7.90;6.53;;;;;;;17.54;75.35;98834.97;2176882;82;21392;-79
2021/07/19 02:45:03;;;;;;;9.30;6.00;;;;;;;17.54;75.24;98832.33;2177001;82;21016;-79
2021/07/19 02:48:03;;;;;;;13.62;6.65;;;;;;;17.55;75.18;98834.08;2177017;82;20980;-80
2021/07/19 02:51:04;;;;;;;11.65;6.80;;;;;;;17.52;75.39;98836.77;2176978;82;20940;-81
2021/07/19 02:54:04;;;;;;;13.72;7.50;;;;;;;17.55;75.40;98822.20;2177066;82;21328;-81
2021/07/19 02:57:04;;;;;;;12.28;7.53;;;;;;;17.55;75.40;98822.20;2177163;82;20937;-82
2021/07/19 03:00:05;;;;;;;11.35;7.00;;;;;;;17.60;75.87;98832.68;2176674;82;21027;-81
2021/07/19 03:03:06;;;;;;;10.05;7.35;;;;;;;17.62;75.76;98836.16;2176992;82;21112;-82
2021/07/19 03:06:06;;;;;;;11.12;7.47;;;;;;;17.63;75.80;98842.73;2177202;82;20972;-81
2021/07/19 03:09:07;;;;;;;15.05;8.10;;;;;;;17.66;75.47;98829.94;2177098;82;20936;-80
2021/07/19 03:12:07;;;;;;;10.90;8.65;;;;;;;17.63;75.66;98839.23;2177242;82;21349;-81
2021/07/19 03:15:08;;;;;;;11.55;8.43;;;;;;;17.65;75.82;98843.58;2176887;82;21371;-82
2021/07/19 03:18:08;;;;;;;16.32;8.95;;;;;;;17.63;75.33;98835.27;2177218;82;21366;-81
2021/07/19 03:21:09;;;;;;;17.55;9.43;;;;;;;17.64;75.41;98841.84;2176980;82;20952;-81
2021/07/19 03:24:09;;;;;;;12.30;9.15;;;;;;;17.64;75.60;98843.16;2177074;82;21324;-81
2021/07/19 03:27:10;;;;;;;12.07;9.15;;;;;;;17.65;75.40;98842.27;2177034;82;21008;-80
2021/07/19 03:30:10;;;;;;;15.48;9.78;;;;;;;17.67;75.40;98852.83;2179911;81;21003;-82
2021/07/19 03:33:11;;;;;;;14.10;9.50;;;;;;;17.69;75.32;98843.98;2180772;82;20960;-81
2021/07/19 03:36:14;;;;;;;15.55;9.45;;;;;;;17.75;75.19;98843.02;2180979;81;21000;-81
2021/07/19 03:39:15;;;;;;;13.43;9.23;;;;;;;17.81;75.20;98845.09;2180760;82;20952;-81
2021/07/19 03:42:15;;;;;;;11.28;8.73;;;;;;;17.85;74.98;98845.92;2180783;81;20979;-82
2021/07/19 03:45:16;;;;;;;13.50;8.85;;;;;;;17.92;74.76;98846.23;2180589;82;21031;-84
2021/07/19 03:48:16;;;;;;;12.15;9.15;;;;;;;17.99;74.41;98853.14;2180766;81;21039;-81
2021/07/19 03:51:17;;;;;;;12.73;8.93;;;;;;;18.05;74.24;98843.80;2180527;81;21026;-81
2021/07/19 03:54:17;;;;;;;15.00;10.00;;;;;;;18.09;74.03;98848.57;2180508;82;21328;-81
2021/07/19 03:57:18;;;;;;;15.93;10.10;;;;;;;18.11;74.16;98848.09;2180380;81;21046;-82
2021/07/19 04:00:18;;;;;;;11.03;8.95;;;;;;;18.11;73.81;98845.45;2180313;82;21003;-83
2021/07/19 04:03:23;;;;;;;12.88;9.83;;;;;;;18.07;73.84;98846.41;2180451;82;20987;-81
2021/07/19 04:06:22;;;;;;;12.55;9.10;;;;;;;18.04;73.80;98859.22;2179027;81;21026;-81
2021/07/19 04:09:23;;;;;;;21.87;9.68;;;;;;;18.15;73.68;98865.63;2180200;82;20987;-81
2021/07/19 04:12:24;;;;;;;16.73;11.08;;;;;;;18.21;73.50;98866.00;2180304;82;20983;-82
2021/07/19 04:15:26;;;;;;;14.07;10.88;;;;;;;18.24;73.28;98871.22;2179579;82;21004;-82
2021/07/19 04:18:27;;;;;;;12.80;9.93;;;;;;;18.21;73.24;98863.36;2180024;82;20987;-81
2021/07/19 04:21:28;;;;;;;18.82;10.15;;;;;;;18.27;73.05;98865.44;2180720;82;21360;-81
2021/07/19 04:24:28;;;;;;;11.38;8.90;;;;;;;18.33;72.90;98864.00;2180692;81;21003;-82
2021/07/19 04:27:29;;;;;;;18.95;10.80;;;;;;;18.31;72.65;98863.16;2180917;82;21038;-81
2021/07/19 04:30:29;;;;;;;33.83;10.20;;;;;;;18.28;72.26;98861.89;2180388;80;21055;-83
2021/07/19 04:33:30;;;;;;;13.43;10.20;;;;;;;18.29;72.24;98868.92;2180577;82;21040;-83
2021/07/19 04:36:30;;;;;;;15.98;10.43;;;;;;;18.32;72.26;98871.50;2180468;81;20949;-82
2021/07/19 04:39:31;;;;;;;15.95;9.73;;;;;;;18.44;72.13;98870.40;2180914;82;21010;-82
2021/07/19 04:42:31;;;;;;;14.50;9.68;;;;;;;18.56;71.96;98864.00;2180657;81;20949;-81
2021/07/19 04:45:32;;;;;;;18.62;10.23;;;;;;;18.63;71.71;98868.30;2180542;82;21015;-82
2021/07/19 04:48:32;;;;;;;11.28;9.78;;;;;;;18.67;71.58;98861.59;2180047;81;21034;-82
2021/07/19 04:51:33;;;;;;;15.00;10.20;;;;;;;18.80;71.04;98869.27;2179960;82;21366;-83
2021/07/19 04:54:37;;;;;;;16.32;9.83;;;;;;;18.90;70.81;98866.40;2180718;81;20996;-82
2021/07/19 04:57:36;;;;;;;14.73;9.83;;;;;;;19.00;70.56;98859.14;2179848;81;21076;-85
2021/07/19 05:00:39;;;;;;;12.10;10.40;;;;;;;18.99;70.24;98856.08;2180875;82;21055;-85
2021/07/19 05:03:39;;;;;;;19.77;10.10;;;;;;;19.14;70.02;98858.41;2180266;81;21063;-83
2021/07/19 05:06:41;;;;;;;18.70;9.90;;;;;;;19.27;69.51;98849.29;2180377;81;20960;-81
2021/07/19 05:09:42;;;;;;;14.40;10.33;;;;;;;19.36;69.17;98846.88;2180369;81;20981;-81
2021/07/19 05:12:45;;;;;;;17.05;9.80;;;;;;;19.46;68.99;98856.34;2180760;81;20989;-82
2021/07/19 05:15:45;;;;;;;16.10;9.30;;;;;;;19.64;68.10;98857.26;2180463;81;20959;-81
2021/07/19 05:18:46;;;;;;;14.13;9.45;;;;;;;19.69;67.51;98859.34;2180620;81;21019;-80
2021/07/19 05:21:46;;;;;;;16.48;9.60;;;;;;;19.82;67.02;98864.33;2180385;82;20987;-83
2021/07/19 05:24:47;;;;;;;106.60;14.00;;;;;;;20.02;66.50;98860.30;2180380;81;21019;-81
2021/07/19 05:27:47;;;;;;;12.28;9.08;;;;;;;20.17;65.84;98859.02;2180836;82;21391;-82
2021/07/19 05:30:48;;;;;;;12.85;8.75;;;;;;;20.34;65.44;98863.41;2176503;81;21102;-80
2021/07/19 05:33:48;;;;;;;27.50;10.18;;;;;;;20.47;64.51;98867.09;2176375;82;20971;-80
2021/07/19 05:36:49;;;;;;;17.92;9.08;;;;;;;20.33;63.67;98866.98;2176449;82;20972;-80
2021/07/19 05:39:49;;;;;;;13.00;9.50;;;;;;;20.35;63.79;98873.56;2176548;82;21008;-79
2021/07/19 05:42:50;;;;;;;9.50;8.58;;;;;;;20.47;64.15;98869.73;2176791;82;20952;-79
2021/07/19 05:45:50;;;;;;;11.53;8.90;;;;;;;20.71;63.94;98870.38;2176557;82;20956;-81
2021/07/19 05:48:51;;;;;;;11.00;8.88;;;;;;;21.08;62.84;98871.98;2176517;82;21387;-80
2021/07/19 05:51:51;;;;;;;21.85;16.95;;;;;;;21.18;61.30;98868.13;2175954;82;20995;-79
2021/07/19 05:54:52;;;;;;;14.25;9.35;;;;;;;21.25;61.63;98871.91;2176641;82;21359;-79
2021/07/19 05:57:53;;;;;;;10.53;9.48;;;;;;;21.41;59.81;98866.13;2176329;82;21029;-80
2021/07/19 06:00:53;;;;;;;14.60;8.95;;;;;;;21.30;59.54;98865.13;2176285;82;21071;-81
2021/07/19 06:03:56;;;;;;;12.03;8.90;;;;;;;21.20;59.93;98863.64;2148706;82;20974;-79
2021/07/19 06:06:56;;;;;;;15.60;9.28;;;;;;;20.99;60.08;98863.38;2176517;82;21436;-79
2021/07/19 06:09:59;;;;;;;13.55;9.08;;;;;;;20.99;59.74;98883.73;2177277;82;20979;-83
2021/07/19 06:12:59;;;;;;;13.08;9.33;;;;;;;21.06;60.29;98883.10;2177051;82;21356;-80
2021/07/19 06:16:06;;;;;;;12.82;9.60;;;;;;;21.19;59.15;98886.66;2176618;82;20952;-80
2021/07/19 06:19:06;;;;;;;14.93;8.75;;;;;;;21.04;60.08;98880.95;2176663;82;20937;-81
2021/07/19 06:22:08;;;;;;;16.07;9.00;;;;;;;21.23;59.64;98892.33;2176833;82;20988;-79
2021/07/19 06:25:08;;;;;;;14.30;9.40;;;;;;;21.26;60.31;98887.38;2175900;82;21414;-80
2021/07/19 06:28:09;;;;;;;18.85;9.68;;;;;;;21.31;59.62;98886.78;2175771;82;21005;-79
2021/07/19 06:31:11;;;;;;;14.63;9.35;;;;;;;21.05;60.03;98880.91;2175409;80;21032;-79
2021/07/19 06:34:12;;;;;;;24.50;10.23;;;;;;;21.31;60.20;98884.12;2176350;82;21008;-80
2021/07/19 06:37:12;;;;;;;11.08;8.70;;;;;;;21.12;60.07;98886.44;2175390;82;21332;-80
2021/07/19 06:40:13;;;;;;;15.20;8.63;;;;;;;21.07;60.08;98879.08;2176485;82;21003;-79
2021/07/19 06:43:14;;;;;;;16.37;9.70;;;;;;;21.17;59.45;98880.99;2176457;82;21066;-79
2021/07/19 06:46:14;;;;;;;14.25;8.90;;;;;;;21.36;59.50;98878.22;2176507;82;21652;-80
2021/07/19 06:49:15;;;;;;;9.60;8.43;;;;;;;21.69;58.59;98874.98;2176884;82;21308;-79
2021/07/19 06:52:18;;;;;;;16.37;8.90;;;;;;;21.78;57.63;98876.47;2176842;82;21051;-80
2021/07/19 06:55:18;;;;;;;14.25;9.13;;;;;;;21.84;57.77;98874.94;2176748;82;20959;-80
2021/07/19 06:58:19;;;;;;;10.88;8.85;;;;;;;21.84;57.49;98874.94;2176729;82;20988;-80
2021/07/19 07:01:20;;;;;;;14.13;9.15;;;;;;;21.71;56.82;98873.59;2176435;82;21090;-80
2021/07/19 07:04:20;;;;;;;11.53;8.88;;;;;;;21.61;56.97;98871.20;2176612;82;21024;-81
2021/07/19 07:07:21;;;;;;;13.25;8.58;;;;;;;21.72;57.57;98876.66;2176776;82;21007;-78
2021/07/19 07:10:22;;;;;;;15.08;8.40;;;;;;;21.82;56.39;98880.30;2176910;82;21021;-80
2021/07/19 07:13:22;;;;;;;13.60;8.68;;;;;;;22.06;56.72;98882.63;2176618;82;21006;-79
2021/07/19 07:16:25;;;;;;;14.38;8.98;;;;;;;22.17;55.84;98890.23;2176631;82;20928;-81
2021/07/19 07:19:26;;;;;;;12.28;8.63;;;;;;;22.13;55.63;98890.80;2177048;82;20968;-81
2021/07/19 07:22:27;;;;;;;10.60;8.58;;;;;;;22.18;54.52;98889.31;2176495;82;20968;-82
2021/07/19 07:25:27;;;;;;;9.13;7.87;;;;;;;22.22;54.79;98886.50;2176734;82;20987;-83
2021/07/19 07:28:28;;;;;;;10.10;7.67;;;;;;;22.27;54.42;98889.45;2176577;82;21415;-85
2021/07/19 07:31:28;;;;;;;12.20;8.38;;;;;;;22.41;53.64;98892.04;2179152;81;21000;-81
2021/07/19 07:34:29;;;;;;;11.30;8.28;;;;;;;22.50;54.67;98897.03;2180428;81;21031;-81
2021/07/19 07:37:29;;;;;;;14.40;8.23;;;;;;;22.55;54.21;98898.23;2179943;81;20952;-81
2021/07/19 07:40:30;;;;;;;13.62;8.63;;;;;;;22.35;52.80;98897.58;2179979;82;20987;-81
2021/07/19 07:43:31;;;;;;;9.55;8.10;;;;;;;22.38;53.31;98894.81;2180166;82;20959;-82
2021/07/19 07:46:31;;;;;;;14.03;8.13;;;;;;;22.54;53.35;98892.47;2180405;82;21348;-81
2021/07/19 07:49:35;;;;;;;10.65;8.70;;;;;;;22.59;52.63;98891.88;2180808;81;20980;-80
2021/07/19 07:52:36;;;;;;;12.63;8.68;;;;;;;22.91;53.72;98892.53;2180300;81;21032;-84
2021/07/19 07:55:43;;;;;;;11.03;8.73;;;;;;;23.31;52.18;98903.39;2180246;82;21047;-83
2021/07/19 07:58:43;;;;;;;14.13;8.85;;;;;;;23.35;52.01;98890.36;2180755;82;21040;-82
2021/07/19 08:01:44;;;;;;;16.60;9.05;;;;;;;23.56;50.96;98893.17;2180782;81;21375;-82
2021/07/19 08:04:45;;;;;;;14.78;8.03;;;;;;;23.39;50.77;98889.31;2180131;81;21011;-79
2021/07/19 08:07:45;;;;;;;10.15;7.72;;;;;;;23.35;50.41;98896.16;2179827;82;21015;-80
2021/07/19 08:10:46;;;;;;;8.53;7.40;;;;;;;23.56;50.03;98895.37;2179400;82;20952;-80
2021/07/19 08:13:47;;;;;;;16.97;8.13;;;;;;;23.98;48.88;98890.55;2179197;82;20955;-81
2021/07/19 08:16:47;;;;;;;8.83;7.60;;;;;;;23.95;46.80;98899.55;2180788;82;20980;-84
2021/07/19 08:19:48;;;;;;;16.42;8.20;;;;;;;23.87;46.87;98898.99;2180845;82;20972;-84
2021/07/19 08:22:50;;;;;;;12.18;8.45;;;;;;;23.91;46.91;98896.60;2180640;82;20979;-82
2021/07/19 08:25:51;;;;;;;9.77;7.00;;;;;;;23.88;47.09;98894.06;2180843;82;21019;-81
2021/07/19 08:28:53;;;;;;;9.10;7.80;;;;;;;24.07;44.56;98900.37;2180700;82;21198;-86
2021/07/19 08:31:56;;;;;;;7.55;6.65;;;;;;;24.19;43.45;98896.78;2180413;81;21034;-82
2021/07/19 08:34:57;;;;;;;7.33;6.25;;;;;;;24.25;42.15;98891.19;2180627;81;21416;-81
2021/07/19 08:38:01;;;;;;;9.78;6.75;;;;;;;24.32;41.85;98882.92;2180127;82;20979;-83
2021/07/19 08:41:02;;;;;;;8.78;6.80;;;;;;;24.91;40.57;98889.20;2180130;82;21070;-83
2021/07/19 08:44:07;;;;;;;12.82;6.70;;;;;;;24.94;40.48;98898.41;2180362;81;21399;-82
2021/07/19 08:47:07;;;;;;;6.60;5.87;;;;;;;24.84;38.80;98897.95;2179627;82;21559;-82
2021/07/19 08:50:14;;;;;;;7.10;6.40;;;;;;;24.77;39.82;98893.36;2180067;82;21466;-81
2021/07/19 08:53:15;;;;;;;8.98;6.33;;;;;;;24.97;37.85;98898.27;2179967;82;20966;-83
2021/07/19 08:56:17;;;;;;;7.50;6.80;;;;;;;24.86;38.69;98895.22;2180213;81;21474;-83
2021/07/19 08:59:19;;;;;;;6.90;5.50;;;;;;;24.84;38.62;98897.95;2180268;82;21001;-82
2021/07/19 09:02:20;;;;;;;15.75;6.58;;;;;;;24.82;38.47;98894.96;2179459;82;20960;-81
2021/07/19 09:05:20;;;;;;;12.53;6.10;;;;;;;24.80;39.01;98897.70;2179577;82;21108;-84
2021/07/19 09:08:21;;;;;;;8.30;6.30;;;;;;;24.76;38.60;98888.09;2179958;82;21324;-81
2021/07/19 09:11:21;;;;;;;9.93;6.50;;;;;;;24.77;39.12;98890.70;2179886;82;20944;-82
2021/07/19 09:14:22;;;;;;;10.38;6.50;;;;;;;24.80;39.48;98888.82;2179781;81;21116;-83
2021/07/19 09:17:22;;;;;;;11.68;6.80;;;;;;;24.79;40.37;98893.30;2179792;81;21003;-82
2021/07/19 09:20:23;;;;;;;9.05;6.28;;;;;;;24.78;39.08;98888.42;2179802;82;20984;-83
2021/07/19 09:23:24;;;;;;;10.48;6.45;;;;;;;24.76;38.83;98884.95;2180571;81;21328;-82
2021/07/19 09:26:24;;;;;;;11.12;7.37;;;;;;;24.97;39.98;98883.58;2180332;81;21419;-79
2021/07/19 09:29:25;;;;;;;10.48;6.55;;;;;;;24.97;39.98;98883.58;2179941;81;20983;-83
2021/07/19 09:32:26;;;;;;;7.70;6.50;;;;;;;25.04;38.85;98889.07;2180448;82;21078;-82
2021/07/19 09:35:29;;;;;;;13.00;7.20;;;;;;;25.04;40.05;98883.27;2180472;82;20940;-83
2021/07/19 09:38:30;;;;;;;10.38;6.67;;;;;;;25.08;40.33;98875.50;2180347;82;20944;-80
2021/07/19 09:41:33;;;;;;;9.23;6.78;;;;;;;25.21;40.27;98873.63;2180443;82;21019;-82
2021/07/19 09:44:34;;;;;;;11.08;7.50;;;;;;;25.19;40.45;98877.70;2180304;82;21017;-82
2021/07/19 09:47:37;;;;;;;13.70;7.22;;;;;;;25.22;41.31;98873.56;2180557;82;21027;-82
2021/07/19 09:50:38;;;;;;;12.75;6.83;;;;;;;25.30;40.82;98876.73;2180409;81;20983;-83
2021/07/19 09:53:39;;;;;;;9.83;6.83;;;;;;;25.48;40.45;98870.11;2180683;81;21244;-83
2021/07/19 09:56:39;;;;;;;9.00;6.90;;;;;;;25.79;40.60;98865.50;2180727;81;21011;-83
2021/07/19 09:59:40;;;;;;;9.28;7.50;;;;;;;25.71;39.95;98865.87;2180316;82;20976;-82
2021/07/19 10:02:40;;;;;;;8.55;6.87;;;;;;;25.67;40.56;98865.16;2180517;82;21352;-82
2021/07/19 10:05:41;;;;;;;7.12;6.42;;;;;;;25.77;39.75;98858.03;2180639;82;20980;-83
2021/07/19 10:08:42;;;;;;;13.80;7.37;;;;;;;25.80;40.09;98860.55;2179603;82;21011;-83
2021/07/19 10:11:43;;;;;;;13.90;6.80;;;;;;;25.86;39.26;98865.59;2179981;82;20948;-84
2021/07/19 10:14:43;;;;;;;10.15;7.53;;;;;;;25.87;41.17;98853.48;2180548;82;21036;-83
2021/07/19 10:17:44;;;;;;;11.00;6.85;;;;;;;25.98;39.95;98856.48;2180613;81;20964;-77
2021/07/19 10:20:46;;;;;;;11.25;6.67;;;;;;;26.05;39.87;98848.18;2180386;82;20968;-83
2021/07/19 10:23:47;;;;;;;9.45;6.55;;;;;;;26.36;39.82;98846.16;2180617;81;21011;-82
2021/07/19 10:26:47;;;;;;;12.80;7.00;;;;;;;26.37;38.51;98851.43;2179687;82;21008;-81
2021/07/19 10:29:48;;;;;;;12.63;6.60;;;;;;;25.81;40.07;98844.91;2179767;81;21011;-82
2021/07/19 10:32:49;;;;;;;9.35;6.80;;;;;;;25.57;41.25;98841.61;2179759;81;20976;-82
2021/07/19 10:38:52;;;;;;;10.05;7.17;;;;;;;26.36;40.70;98832.78;2158927;82;21098;-83
2021/07/19 10:41:52;;;;;;;14.18;10.58;;;;;;;26.67;40.42;98832.88;2180232;81;21000;-82
2021/07/19 10:44:53;;;;;;;9.70;7.05;;;;;;;26.49;40.35;98828.03;2180309;81;21400;-84
2021/07/19 10:47:53;;;;;;;10.10;7.00;;;;;;;26.69;39.44;98830.12;2180017;82;20980;-80
2021/07/19 10:50:54;;;;;;;12.25;7.67;;;;;;;26.66;39.74;98828.47;2180093;81;20971;-82
2021/07/19 10:53:55;;;;;;;9.85;7.90;;;;;;;26.73;39.28;98833.02;2180377;81;21336;-83
2021/07/19 10:56:58;;;;;;;11.75;8.13;;;;;;;26.21;40.15;98832.59;2180434;81;20976;-85
2021/07/19 10:59:58;;;;;;;12.73;8.55;;;;;;;26.35;39.03;98837.27;2180285;81;21044;-83
2021/07/19 11:02:58;;;;;;;14.55;7.75;;;;;;;26.36;38.61;98829.63;2180497;81;20964;-81
2021/07/19 11:05:59;;;;;;;13.78;8.55;;;;;;;26.71;38.88;98822.87;2180693;82;20976;-81
2021/07/19 11:09:01;;;;;;;12.70;8.53;;;;;;;26.76;39.13;98811.44;2159464;82;20991;-79
2021/07/19 11:12:02;;;;;;;11.70;8.33;;;;;;;26.70;38.34;98805.94;2180325;82;21434;-82
2021/07/19 11:15:02;;;;;;;13.13;8.03;;;;;;;27.10;38.68;98797.11;2179952;81;20968;-83
2021/07/19 11:18:03;;;;;;;13.45;7.65;;;;;;;27.09;38.78;98802.94;2179621;82;20979;-83
2021/07/19 11:21:04;;;;;;;11.95;7.80;;;;;;;26.83;38.55;98806.13;2180514;81;20967;-87
2021/07/19 11:24:07;;;;;;;11.50;7.83;;;;;;;26.69;38.76;98799.33;2180984;81;21305;-83
2021/07/19 11:27:08;;;;;;;10.72;8.10;;;;;;;26.63;37.87;98807.22;2180212;82;21442;-81
2021/07/19 11:30:09;;;;;;;13.38;9.00;;;;;;;26.93;38.61;98796.20;2179619;80;21039;-81
2021/07/19 11:33:15;;;;;;;10.88;8.10;;;;;;;27.54;37.90;98790.55;2176803;82;21356;-82
2021/07/19 11:36:16;;;;;;;16.00;8.58;;;;;;;27.71;37.16;98799.84;2176572;82;20924;-83
2021/07/19 11:39:18;;;;;;;17.10;8.53;;;;;;;27.05;38.61;98793.34;2176702;82;21721;-79
2021/07/19 11:42:19;;;;;;;9.60;7.37;;;;;;;26.91;38.41;98802.59;2175938;82;21040;-81
2021/07/19 11:45:19;;;;;;;11.15;7.67;;;;;;;26.76;38.54;98793.55;2176582;82;20944;-81
2021/07/19 11:48:20;;;;;;;17.75;8.00;;;;;;;27.21;39.06;98790.19;2176796;82;20955;-78
2021/07/19 11:51:21;;;;;;;16.60;7.72;;;;;;;27.39;38.42;98780.23;2176951;82;20972;-85
2021/07/19 11:54:21;;;;;;;8.73;7.10;;;;;;;27.75;37.61;98777.77;2176827;82;20988;-82
2021/07/19 12:00:27;;;;;;;16.40;8.67;;;;;;;27.93;37.50;98761.05;2149582;82;21070;-83
2021/07/19 12:03:29;;;;;;;15.18;8.53;;;;;;;28.14;36.97;98763.78;2176819;82;21349;-82
2021/07/19 12:06:29;;;;;;;15.20;7.95;;;;;;;28.07;36.74;98757.92;2176058;82;21054;-77
2021/07/19 12:09:30;;;;;;;16.17;8.10;;;;;;;27.48;38.41;98762.76;2176387;82;20988;-81
2021/07/19 12:12:31;;;;;;;11.45;7.75;;;;;;;27.18;39.28;98754.67;2176819;82;20976;-81
2021/07/19 12:15:31;;;;;;;12.28;7.92;;;;;;;27.10;39.17;98757.78;2176953;82;21004;-80
2021/07/19 12:18:32;;;;;;;11.08;8.33;;;;;;;27.25;38.53;98758.73;2177590;82;20960;-82
2021/07/19 12:21:33;;;;;;;13.28;8.70;;;;;;;27.26;37.83;98761.80;2177565;82;21325;-84
2021/07/19 12:24:38;;;;;;;10.65;8.23;;;;;;;27.43;36.85;98754.98;2177107;82;20996;-80
2021/07/19 12:27:39;;;;;;;10.40;8.18;;;;;;;27.85;36.86;98750.79;2176816;82;21015;-80
2021/07/19 12:30:40;;;;;;;13.08;8.33;;;;;;;28.03;36.04;98751.02;2176892;81;21425;-82
2021/07/19 12:33:40;;;;;;;15.00;8.10;;;;;;;27.97;37.82;98754.55;2176161;82;21024;-83
2021/07/19 12:36:41;;;;;;;12.47;8.68;;;;;;;27.55;38.54;98758.77;2176091;82;20952;-81
2021/07/19 12:39:42;;;;;;;15.48;8.00;;;;;;;26.96;39.44;98751.84;2176320;82;20971;-81
2021/07/19 12:42:45;;;;;;;12.60;8.48;;;;;;;26.96;39.98;98744.28;2175660;82;20992;-81
2021/07/19 12:45:44;;;;;;;11.87;8.17;;;;;;;27.23;38.59;98740.53;2226087;79;21039;-83
2021/07/19 12:48:45;;;;;;;11.48;7.72;;;;;;;27.16;40.21;98738.68;2226062;79;20951;-80
2021/07/19 12:51:45;;;;;;;15.38;7.97;;;;;;;27.31;40.18;98742.30;2225545;79;20912;-82
2021/07/19 12:54:46;;;;;;;9.93;8.03;;;;;;;26.99;40.74;98733.42;2226100;79;20944;-77
2021/07/19 12:57:46;;;;;;;11.33;8.50;;;;;;;26.48;40.91;98735.78;2225815;79;20950;-80
2021/07/19 13:03:49;;;;;;;12.33;8.48;;;;;;;26.00;42.26;98732.91;2148792;82;21307;-78
2021/07/19 13:06:50;;;;;;;9.50;8.23;;;;;;;25.93;42.06;98734.17;2224970;80;20948;-78
2021/07/19 13:09:50;;;;;;;11.28;8.68;;;;;;;26.36;42.00;98713.22;2226370;79;20955;-81
2021/07/19 13:12:51;;;;;;;12.73;8.73;;;;;;;26.75;40.19;98715.98;2226550;79;21014;-80
2021/07/19 13:15:51;;;;;;;10.48;8.18;;;;;;;26.98;39.83;98706.72;2226665;79;20968;-80
2021/07/19 13:18:52;;;;;;;13.40;8.55;;;;;;;27.18;39.97;98712.66;2226645;79;21371;-81
2021/07/19 13:21:52;;;;;;;9.00;7.60;;;;;;;26.84;39.44;98700.27;2226541;79;20967;-80
2021/07/19 13:24:53;;;;;;;11.25;8.83;;;;;;;26.87;41.06;98709.47;2226252;79;20999;-80
2021/07/19 13:27:54;;;;;;;13.93;8.83;;;;;;;26.89;41.38;98708.08;2226403;80;21071;-83
2021/07/19 13:30:55;;;;;;;12.55;9.08;;;;;;;27.06;40.73;98708.02;2234961;79;21415;-81
2021/07/19 13:33:55;;;;;;;13.28;9.05;;;;;;;27.03;38.83;98701.97;2261850;79;20991;-82
2021/07/19 13:36:56;;;;;;;10.68;8.48;;;;;;;27.06;38.88;98697.77;2262287;79;20956;-80
2021/07/19 13:39:56;;;;;;;14.78;8.95;;;;;;;27.19;39.75;98698.80;2262477;79;20975;-80
2021/07/19 13:43:02;;;;;;;10.78;8.78;;;;;;;27.24;39.06;98696.70;2262156;79;20982;-80
2021/07/19 13:46:03;;;;;;;18.48;10.20;;;;;;;27.19;38.70;98698.31;2262240;79;21030;-79
2021/07/19 13:49:03;;;;;;;12.95;9.50;;;;;;;27.33;39.02;98696.65;2262485;79;21374;-78
2021/07/19 13:52:04;;;;;;;14.75;9.85;;;;;;;27.39;38.26;98704.33;2262399;79;21357;-80
2021/07/19 13:55:07;;;;;;;11.78;10.32;;;;;;;27.22;37.15;98686.55;2262241;79;20956;-80
2021/07/19 13:58:08;;;;;;;15.00;9.83;;;;;;;27.36;37.06;98699.15;2262344;79;20960;-80
2021/07/19 14:01:08;;;;;;;17.95;10.35;;;;;;;27.42;37.54;98704.15;2262450;79;21336;-81
2021/07/19 14:04:09;;;;;;;14.47;9.38;;;;;;;27.37;37.63;98703.55;2262488;79;21023;-81
2021/07/19 14:07:09;;;;;;;9.80;8.80;;;;;;;27.40;37.90;98697.53;2262105;79;20995;-80
2021/07/19 14:10:10;;;;;;;9.88;8.83;;;;;;;27.27;37.34;98708.11;2261811;79;21343;-79
2021/07/19 14:13:11;;;;;;;11.15;8.78;;;;;;;27.07;38.06;98703.05;2262589;79;20936;-80